createdAt,value
2022-12-27T00:02:04.849Z,100959.91
2022-12-27T00:04:32.743Z,100959.56
2022-12-27T00:07:00.364Z,100960.66
2022-12-27T00:09:27.945Z,100958.72
2022-12-27T00:12:00.001Z,100972.28
2022-12-27T00:14:28.088Z,100970.16
2022-12-27T00:16:55.730Z,100979.34
2022-12-27T00:19:23.281Z,100978.28
2022-12-27T00:21:50.872Z,100975.28
2022-12-27T00:24:18.439Z,100991.13
2022-12-27T00:26:46.024Z,100989.91
2022-12-27T00:29:14.914Z,100987.88
2022-12-27T00:31:43.363Z,100981.78
2022-12-27T00:34:12.091Z,100994.38
2022-12-27T00:36:39.715Z,100991.47
2022-12-27T00:39:07.337Z,100996.19
2022-12-27T00:41:34.870Z,101004.44
2022-12-27T00:44:02.671Z,101004.44
2022-12-27T00:46:31.613Z,100998.66
2022-12-27T00:48:59.376Z,101009.34
2022-12-27T00:51:27.152Z,101009.28
2022-12-27T00:53:55.774Z,101017.66
2022-12-27T00:56:25.650Z,101010.59
2022-12-27T00:58:55.046Z,101004.69
2022-12-27T01:01:24.304Z,101013.06
2022-12-27T01:03:53.815Z,101015.19
2022-12-27T01:06:23.823Z,101018.28
2022-12-27T01:08:51.368Z,101013.00
2022-12-27T01:11:19.809Z,101023.00
2022-12-27T01:13:48.133Z,101024.41
2022-12-27T01:16:18.471Z,101015.94
2022-12-27T01:18:46.319Z,101024.22
2022-12-27T01:21:18.031Z,101026.16
2022-12-27T01:23:46.272Z,101031.09
2022-12-27T01:26:16.091Z,101029.91
2022-12-27T01:28:44.016Z,101033.25
2022-12-27T01:31:13.887Z,101039.53
2022-12-27T01:33:41.660Z,101032.47
2022-12-27T01:36:11.241Z,101039.94
2022-12-27T01:38:42.582Z,101049.19
2022-12-27T01:41:28.331Z,101051.44
2022-12-27T01:43:55.919Z,101056.44
2022-12-27T01:46:23.609Z,101054.94
2022-12-27T01:48:51.660Z,101060.75
2022-12-27T01:51:19.751Z,101061.72
2022-12-27T01:53:51.938Z,101067.63
2022-12-27T01:56:24.383Z,101067.84
2022-12-27T01:58:56.567Z,101083.34
2022-12-27T02:01:27.948Z,101073.03
2022-12-27T02:04:02.701Z,101074.50
2022-12-27T02:06:32.093Z,101070.09
2022-12-27T02:09:08.214Z,101072.53
2022-12-27T02:11:52.967Z,101081.78
2022-12-27T02:14:27.811Z,101078.44
2022-12-27T02:16:57.676Z,101071.25
2022-12-27T02:19:35.639Z,101077.25
2022-12-27T02:22:31.540Z,101077.25
2022-12-27T02:25:16.254Z,101084.16
2022-12-27T02:27:57.691Z,101081.47
2022-12-27T02:30:27.139Z,101082.06
2022-12-27T02:32:59.529Z,101075.91
2022-12-27T02:35:32.980Z,101082.66
2022-12-27T02:38:06.151Z,101077.44
2022-12-27T02:40:55.443Z,101075.91
2022-12-27T02:43:41.015Z,101076.69
2022-12-27T02:46:33.151Z,101085.09
2022-12-27T02:49:18.677Z,101068.91
2022-12-27T02:52:26.725Z,101076.47
2022-12-27T02:55:11.371Z,101083.16
2022-12-27T02:57:43.760Z,101086.59
2022-12-27T03:00:35.014Z,101090.81
2022-12-27T03:03:24.701Z,101087.25
2022-12-27T03:06:42.711Z,101100.03
2022-12-27T03:09:45.974Z,101098.25
2022-12-27T03:12:41.631Z,101088.28
2022-12-27T03:15:39.605Z,101104.34
2022-12-27T03:18:13.225Z,101099.84
2022-12-27T03:25:05.985Z,101104.25
2022-12-27T03:27:37.298Z,101103.59
2022-12-27T03:30:27.140Z,101104.63
2022-12-27T03:33:16.706Z,101105.53
2022-12-27T03:36:05.209Z,101097.09
2022-12-27T03:38:37.429Z,101096.91
2022-12-27T03:41:26.674Z,101093.38
2022-12-27T03:43:54.261Z,101102.50
2022-12-27T03:46:38.815Z,101104.94
2022-12-27T03:49:21.576Z,101115.16
2022-12-27T03:51:55.478Z,101111.59
2022-12-27T03:54:27.194Z,101107.78
2022-12-27T03:56:57.401Z,101104.13
2022-12-27T03:59:26.477Z,101106.38
2022-12-27T04:01:54.267Z,101102.47
2022-12-27T04:04:21.998Z,101113.31
2022-12-27T04:06:51.021Z,101104.28
2022-12-27T04:09:36.081Z,101104.06
2022-12-27T04:12:21.483Z,101110.53
2022-12-27T04:15:07.901Z,101108.56
2022-12-27T04:17:53.181Z,101103.06
2022-12-27T04:20:38.553Z,101113.06
2022-12-27T04:23:25.282Z,101100.66
2022-12-27T04:26:10.616Z,101106.25
2022-12-27T04:28:55.908Z,101100.72
2022-12-27T04:31:41.172Z,101099.63
2022-12-27T04:34:26.527Z,101101.84
2022-12-27T04:36:54.071Z,101105.97
2022-12-27T04:39:23.086Z,101103.91
2022-12-27T04:42:08.000Z,101105.25
2022-12-27T04:44:53.140Z,101110.34
2022-12-27T04:47:40.749Z,101106.38
2022-12-27T04:50:34.781Z,101109.28
2022-12-27T04:53:20.092Z,101104.75
2022-12-27T04:55:48.981Z,101103.75
2022-12-27T04:58:16.507Z,101099.78
2022-12-27T05:01:01.872Z,101107.78
2022-12-27T05:03:29.560Z,101109.13
2022-12-27T05:05:57.240Z,101111.25
2022-12-27T05:08:42.209Z,101109.16
2022-12-27T05:11:29.280Z,101111.81
2022-12-27T05:14:03.060Z,101112.25
2022-12-27T05:16:32.528Z,101118.88
2022-12-27T05:19:00.173Z,101116.69
2022-12-27T05:21:27.790Z,101123.88
2022-12-27T05:24:13.135Z,101124.41
2022-12-27T05:26:43.018Z,101129.28
2022-12-27T05:29:10.985Z,101137.91
2022-12-27T05:31:38.622Z,101135.03
2022-12-27T05:34:07.020Z,101142.97
2022-12-27T05:36:35.107Z,101142.31
2022-12-27T05:39:02.731Z,101135.44
2022-12-27T05:41:30.271Z,101145.50
2022-12-27T05:44:06.561Z,101147.16
2022-12-27T05:46:34.933Z,101143.72
2022-12-27T05:49:02.634Z,101141.63
2022-12-27T05:51:30.239Z,101148.78
2022-12-27T05:53:57.892Z,101145.91
2022-12-27T05:56:25.464Z,101147.56
2022-12-27T05:58:54.224Z,101151.53
2022-12-27T06:01:23.602Z,101160.03
2022-12-27T06:03:51.235Z,101168.19
2022-12-27T06:06:18.868Z,101171.50
2022-12-27T06:08:46.461Z,101163.88
2022-12-27T06:11:17.660Z,101162.88
2022-12-27T06:13:50.244Z,101164.97
2022-12-27T06:16:18.726Z,101158.66
2022-12-27T06:18:47.661Z,101157.88
2022-12-27T06:21:17.604Z,101157.63
2022-12-27T06:23:46.123Z,101153.06
2022-12-27T06:26:16.240Z,101158.16
2022-12-27T06:28:43.856Z,101155.41
2022-12-27T06:31:12.518Z,101160.47
2022-12-27T06:33:40.553Z,101162.78
2022-12-27T06:36:11.327Z,101162.66
2022-12-27T06:38:39.406Z,101174.59
2022-12-27T06:41:08.591Z,101180.81
2022-12-27T06:43:37.001Z,101184.34
2022-12-27T06:46:10.292Z,101185.13
2022-12-27T06:48:41.198Z,101188.97
2022-12-27T06:51:12.579Z,101203.31
2022-12-27T06:53:40.311Z,101193.78
2022-12-27T06:56:10.429Z,101204.63
2022-12-27T06:58:38.419Z,101200.94
2022-12-27T07:01:08.654Z,101210.09
2022-12-27T07:03:36.350Z,101206.84
2022-12-27T07:06:05.472Z,101214.63
2022-12-27T07:08:35.465Z,101212.81
2022-12-27T07:11:04.919Z,101204.63
2022-12-27T07:13:34.825Z,101212.34
2022-12-27T07:16:04.816Z,101200.16
2022-12-27T07:18:32.542Z,101204.72
2022-12-27T07:21:00.424Z,101211.88
2022-12-27T07:23:27.988Z,101214.94
2022-12-27T07:26:03.307Z,101220.78
2022-12-27T07:28:30.984Z,101216.47
2022-12-27T07:30:58.631Z,101218.50
2022-12-27T07:33:26.358Z,101214.47
2022-12-27T07:35:58.957Z,101226.16
2022-12-27T07:38:26.625Z,101217.63
2022-12-27T07:40:59.416Z,101224.06
2022-12-27T07:43:27.238Z,101234.22
2022-12-27T07:45:54.797Z,101232.50
2022-12-27T07:48:22.368Z,101235.25
2022-12-27T07:50:55.495Z,101241.38
2022-12-27T07:53:23.142Z,101232.19
2022-12-27T07:55:55.132Z,101228.38
2022-12-27T07:58:24.080Z,101230.66
2022-12-27T08:00:53.300Z,101233.97
2022-12-27T08:03:21.112Z,101235.88
2022-12-27T08:05:50.015Z,101233.13
2022-12-27T08:08:19.320Z,101236.88
2022-12-27T08:10:46.928Z,101236.25
2022-12-27T08:13:14.543Z,101232.63
2022-12-27T08:15:44.489Z,101242.78
2022-12-27T08:18:12.093Z,101244.03
2022-12-27T08:20:39.739Z,101241.13
2022-12-27T08:23:07.285Z,101246.22
2022-12-27T08:25:34.879Z,101256.25
2022-12-27T08:28:06.001Z,101255.50
2022-12-27T08:30:33.711Z,101249.97
2022-12-27T08:33:04.132Z,101245.22
2022-12-27T08:35:52.267Z,101248.56
2022-12-27T08:38:21.017Z,101249.69
2022-12-27T08:40:48.665Z,101245.94
2022-12-27T08:43:16.588Z,101252.34
2022-12-27T08:45:44.186Z,101256.34
2022-12-27T08:48:13.344Z,101261.66
2022-12-27T08:50:40.930Z,101270.75
2022-12-27T08:53:08.499Z,101272.31
2022-12-27T08:55:36.123Z,101269.84
2022-12-27T08:58:12.077Z,101266.22
2022-12-27T09:00:43.552Z,101265.97
2022-12-27T09:03:13.104Z,101259.69
2022-12-27T09:05:42.199Z,101258.56
2022-12-27T09:08:10.384Z,101254.13
2022-12-27T09:10:38.028Z,101255.66
2022-12-27T09:13:05.696Z,101252.47
2022-12-27T09:15:33.391Z,101257.22
2022-12-27T09:18:02.961Z,101259.31
2022-12-27T09:20:31.878Z,101259.13
2022-12-27T09:23:00.411Z,101260.22
2022-12-27T09:25:28.071Z,101262.38
2022-12-27T09:27:55.872Z,101261.44
2022-12-27T09:30:23.440Z,101268.47
2022-12-27T09:32:51.062Z,101267.03
2022-12-27T09:35:18.714Z,101266.69
2022-12-27T09:37:47.611Z,101259.19
2022-12-27T09:40:17.247Z,101270.56
2022-12-27T09:43:01.976Z,101267.56
2022-12-27T09:45:39.155Z,101264.47
2022-12-27T09:48:12.852Z,101264.38
2022-12-27T09:50:48.665Z,101267.09
2022-12-27T09:53:22.280Z,101267.16
2022-12-27T09:55:52.889Z,101266.56
2022-12-27T09:58:35.374Z,101260.31
2022-12-27T10:01:03.749Z,101260.44
2022-12-27T10:03:31.788Z,101266.72
2022-12-27T10:06:12.284Z,101256.31
2022-12-27T10:08:48.440Z,101262.22
2022-12-27T10:11:39.168Z,101250.31
2022-12-27T10:14:18.960Z,101248.16
2022-12-27T10:16:53.946Z,101246.66
2022-12-27T10:19:28.431Z,101250.53
2022-12-27T10:22:06.660Z,101251.22
2022-12-27T10:24:40.742Z,101247.38
2022-12-27T10:27:15.519Z,101246.59
2022-12-27T10:29:43.751Z,101246.97
2022-12-27T10:32:14.052Z,101248.91
2022-12-27T10:34:41.666Z,101234.66
2022-12-27T10:37:14.321Z,101242.09
2022-12-27T10:39:44.118Z,101245.16
2022-12-27T10:42:23.982Z,101247.47
2022-12-27T10:44:51.525Z,101237.59
2022-12-27T10:47:19.649Z,101240.81
2022-12-27T10:50:09.551Z,101239.13
2022-12-27T10:52:37.261Z,101230.81
2022-12-27T10:55:27.534Z,101236.41
2022-12-27T10:57:55.834Z,101231.06
2022-12-27T11:00:24.917Z,101229.19
2022-12-27T11:02:53.919Z,101227.09
2022-12-27T11:05:24.432Z,101229.00
2022-12-27T11:07:52.670Z,101219.91
2022-12-27T11:10:23.828Z,101228.56
2022-12-27T11:12:59.890Z,101223.31
2022-12-27T11:15:29.594Z,101219.91
2022-12-27T11:17:59.634Z,101220.97
2022-12-27T11:20:30.769Z,101220.72
2022-12-27T11:23:02.622Z,101215.00
2022-12-27T11:25:32.307Z,101206.28
2022-12-27T11:28:04.008Z,101209.72
2022-12-27T11:30:35.608Z,101216.84
2022-12-27T11:33:07.028Z,101211.75
2022-12-27T11:35:47.433Z,101221.09
2022-12-27T11:38:25.190Z,101215.31
2022-12-27T11:41:02.187Z,101216.38
2022-12-27T11:43:34.293Z,101223.06
2022-12-27T11:46:06.531Z,101225.69
2022-12-27T11:48:39.326Z,101222.00
2022-12-27T11:51:42.174Z,101220.44
2022-12-27T11:54:33.800Z,101218.31
2022-12-27T11:57:15.953Z,101223.13
2022-12-27T12:00:06.833Z,101222.56
2022-12-27T12:02:58.026Z,101216.13
2022-12-27T12:05:46.389Z,101213.69
2022-12-27T12:08:33.811Z,101216.34
2022-12-27T12:11:12.935Z,101216.66
2022-12-27T12:13:59.754Z,101205.34
2022-12-27T12:16:51.551Z,101214.00
2022-12-27T12:19:34.942Z,101215.34
2022-12-27T12:22:21.402Z,101214.03
2022-12-27T12:25:18.721Z,101219.31
2022-12-27T12:28:02.559Z,101217.16
2022-12-27T12:31:00.770Z,101205.19
2022-12-27T12:33:49.098Z,101199.97
2022-12-27T12:36:42.228Z,101207.78
2022-12-27T12:39:21.317Z,101200.88
2022-12-27T12:42:11.365Z,101207.84
2022-12-27T12:44:59.021Z,101230.59
2022-12-27T12:47:46.203Z,101213.81
2022-12-27T12:50:32.729Z,101215.31
2022-12-27T12:53:20.039Z,101206.03
2022-12-27T12:55:58.829Z,101208.69
2022-12-27T12:58:51.589Z,101198.56
2022-12-27T13:01:35.211Z,101200.66
2022-12-27T13:04:09.047Z,101192.81
2022-12-27T13:07:04.300Z,101188.09
2022-12-27T13:09:45.431Z,101185.22
2022-12-27T13:12:17.869Z,101180.22
2022-12-27T13:15:05.070Z,101181.00
2022-12-27T13:17:40.089Z,101179.28
2022-12-27T13:20:24.406Z,101175.19
2022-12-27T13:23:05.190Z,101175.78
2022-12-27T13:25:42.292Z,101174.28
2022-12-27T13:28:27.561Z,101172.53
2022-12-27T13:31:00.143Z,101169.00
2022-12-27T13:33:35.964Z,101172.50
2022-12-27T13:36:25.137Z,101174.75
2022-12-27T13:39:11.102Z,101182.03
2022-12-27T13:41:50.729Z,101180.94
2022-12-27T13:44:32.417Z,101168.78
2022-12-27T13:47:36.177Z,101172.53
2022-12-27T13:50:32.860Z,101183.16
2022-12-27T13:53:25.543Z,101166.09
2022-12-27T13:55:56.631Z,101169.44
2022-12-27T13:59:05.857Z,101171.38
2022-12-27T14:01:47.097Z,101178.41
2022-12-27T14:04:35.123Z,101167.72
2022-12-27T14:07:46.400Z,101164.47
2022-12-27T14:10:29.301Z,101169.81
2022-12-27T14:13:01.863Z,101165.56
2022-12-27T14:15:44.427Z,101164.19
2022-12-27T14:18:28.041Z,101168.91
2022-12-27T14:21:12.469Z,101168.13
2022-12-27T14:23:56.191Z,101172.84
2022-12-27T14:26:42.021Z,101164.19
2022-12-27T14:29:35.255Z,101163.06
2022-12-27T14:32:45.800Z,101157.63
2022-12-27T14:35:43.151Z,101161.47
2022-12-27T14:38:41.717Z,101159.34
2022-12-27T14:41:51.837Z,101154.59
2022-12-27T14:44:56.565Z,101155.91
2022-12-27T14:47:42.617Z,101151.56
2022-12-27T14:50:48.348Z,101151.41
2022-12-27T14:54:12.664Z,101145.16
2022-12-27T14:56:54.568Z,101140.53
2022-12-27T14:59:33.531Z,101133.47
2022-12-27T15:02:19.089Z,101131.41
2022-12-27T15:05:11.587Z,101130.22
2022-12-27T15:08:07.739Z,101124.75
2022-12-27T15:10:52.679Z,101128.41
2022-12-27T15:13:30.689Z,101123.63
2022-12-27T15:16:08.834Z,101122.13
2022-12-27T15:18:55.588Z,101119.88
2022-12-27T15:21:43.490Z,101126.75
2022-12-27T15:24:22.404Z,101127.03
2022-12-27T15:26:55.578Z,101122.69
2022-12-27T15:29:38.401Z,101122.19
2022-12-27T15:32:20.488Z,101121.78
2022-12-27T15:35:04.273Z,101126.47
2022-12-27T15:37:57.128Z,101128.97
2022-12-27T15:40:39.525Z,101124.75
2022-12-27T15:43:18.977Z,101127.38
2022-12-27T15:46:00.970Z,101130.38
2022-12-27T15:48:58.515Z,101124.00
2022-12-27T15:51:33.455Z,101132.81
2022-12-27T15:54:28.662Z,101131.22
2022-12-27T15:57:15.210Z,101135.78
2022-12-27T15:59:47.370Z,101137.41
2022-12-27T16:02:35.520Z,101133.94
2022-12-27T16:05:11.898Z,101136.53
2022-12-27T16:07:47.702Z,101139.94
2022-12-27T16:10:35.386Z,101132.50
2022-12-27T16:13:39.220Z,101130.34
2022-12-27T16:16:12.779Z,101127.13
2022-12-27T16:19:14.935Z,101134.91
2022-12-27T16:21:45.374Z,101136.94
2022-12-27T16:24:18.463Z,101143.03
2022-12-27T16:26:55.480Z,101139.31
2022-12-27T16:29:27.276Z,101138.81
2022-12-27T16:32:15.582Z,101137.34
2022-12-27T16:34:46.661Z,101134.56
2022-12-27T16:37:28.892Z,101131.41
2022-12-27T16:40:10.764Z,101134.34
2022-12-27T16:43:32.728Z,101128.84
2022-12-27T16:46:35.755Z,101130.38
2022-12-27T16:49:43.545Z,101131.50
2022-12-27T16:52:39.063Z,101117.63
2022-12-27T16:55:25.676Z,101125.75
2022-12-27T16:57:53.387Z,101120.00
2022-12-27T17:00:36.450Z,101114.91
2022-12-27T17:03:33.191Z,101111.91
2022-12-27T17:09:34.060Z,101107.63
2022-12-27T17:12:10.308Z,101100.44
2022-12-27T17:14:39.519Z,101094.91
2022-12-27T17:17:11.514Z,101098.38
2022-12-27T17:19:45.198Z,101109.13
2022-12-27T17:22:15.726Z,101105.47
2022-12-27T17:24:45.749Z,101102.50
2022-12-27T17:27:24.267Z,101104.69
2022-12-27T17:30:05.021Z,101111.13
2022-12-27T17:32:50.306Z,101108.47
2022-12-27T17:35:29.207Z,101108.47
2022-12-27T17:38:10.551Z,101100.50
2022-12-27T17:40:47.273Z,101103.28
2022-12-27T17:43:46.282Z,101094.31
2022-12-27T17:46:29.667Z,101102.75
2022-12-27T17:48:58.935Z,101095.88
2022-12-27T17:51:29.308Z,101083.72
2022-12-27T17:54:15.998Z,101094.13
2022-12-27T17:57:04.439Z,101095.00
2022-12-27T17:59:33.918Z,101083.28
2022-12-27T18:02:06.467Z,101069.00
2022-12-27T18:04:36.974Z,101066.03
2022-12-27T18:07:07.884Z,101057.72
2022-12-27T18:09:39.753Z,101055.41
2022-12-27T18:12:18.586Z,101047.22
2022-12-27T18:14:52.391Z,101052.72
2022-12-27T18:17:28.984Z,101065.34
2022-12-27T18:19:57.358Z,101060.03
2022-12-27T18:22:25.039Z,101050.53
2022-12-27T18:24:52.577Z,101056.06
2022-12-27T18:27:25.522Z,101049.84
2022-12-27T18:29:53.116Z,101047.97
2022-12-27T18:32:29.747Z,101043.66
2022-12-27T18:35:01.934Z,101049.59
2022-12-27T18:37:30.890Z,101057.38
2022-12-27T18:40:01.151Z,101047.97
2022-12-27T18:42:34.268Z,101058.34
2022-12-27T18:45:06.017Z,101048.72
2022-12-27T18:47:39.851Z,101051.69
2022-12-27T18:50:18.926Z,101043.13
2022-12-27T18:52:51.248Z,101041.47
2022-12-27T18:55:26.699Z,101047.88
2022-12-27T18:58:03.331Z,101042.56
2022-12-27T19:00:31.004Z,101035.03
2022-12-27T19:03:14.605Z,101037.13
2022-12-27T19:05:59.847Z,101024.22
2022-12-27T19:08:33.735Z,101026.44
2022-12-27T19:11:01.712Z,101025.50
2022-12-27T19:13:37.012Z,101018.19
2022-12-27T19:16:05.205Z,101013.41
2022-12-27T19:18:38.268Z,101012.53
2022-12-27T19:21:07.708Z,101009.78
2022-12-27T19:23:37.164Z,101013.75
2022-12-27T19:26:25.460Z,101011.00
2022-12-27T19:29:02.201Z,101006.09
2022-12-27T19:31:30.607Z,100998.91
2022-12-27T19:34:02.200Z,100996.91
2022-12-27T19:36:32.550Z,100999.97
2022-12-27T19:39:01.146Z,101001.53
2022-12-27T19:41:28.845Z,101008.38
2022-12-27T19:43:56.990Z,100996.97
2022-12-27T19:46:30.816Z,101000.81
2022-12-27T19:51:50.950Z,100989.97
2022-12-27T19:54:21.833Z,100984.00
2022-12-27T19:56:49.735Z,100984.13
2022-12-27T19:59:20.241Z,100983.94
2022-12-27T20:01:49.891Z,100988.94
2022-12-27T20:04:19.060Z,100988.06
2022-12-27T20:06:49.417Z,100989.81
2022-12-27T20:09:19.201Z,100987.34
2022-12-27T20:11:49.774Z,100981.59
2022-12-27T20:14:17.958Z,100978.56
2022-12-27T20:16:46.186Z,100969.72
2022-12-27T20:19:17.885Z,100969.38
2022-12-27T20:21:45.465Z,100969.56
2022-12-27T20:24:14.089Z,100958.97
2022-12-27T20:26:42.974Z,100960.47
2022-12-27T20:29:11.480Z,100954.41
2022-12-27T20:31:44.641Z,100960.34
2022-12-27T20:34:12.343Z,100955.66
2022-12-27T20:36:41.758Z,100958.97
2022-12-27T20:39:09.505Z,100960.72
2022-12-27T20:41:37.259Z,100955.19
2022-12-27T20:44:05.619Z,100959.91
2022-12-27T20:46:33.289Z,100949.63
2022-12-27T20:49:01.263Z,100950.28
2022-12-27T20:51:31.546Z,100938.13
2022-12-27T20:54:02.602Z,100942.09
2022-12-27T20:56:30.674Z,100937.41
2022-12-27T20:58:58.266Z,100943.13
2022-12-27T21:01:27.181Z,100940.22
2022-12-27T21:03:55.895Z,100943.53
2022-12-27T21:06:25.586Z,100940.91
2022-12-27T21:08:57.149Z,100932.53
2022-12-27T21:11:30.219Z,100925.19
2022-12-27T21:13:57.888Z,100929.56
2022-12-27T21:16:27.748Z,100926.75
2022-12-27T21:18:56.389Z,100936.38
2022-12-27T21:21:28.382Z,100941.47
2022-12-27T21:23:56.868Z,100941.88
2022-12-27T21:26:27.781Z,100938.31
2022-12-27T21:28:55.921Z,100933.22
2022-12-27T21:31:23.739Z,100932.34
2022-12-27T21:33:51.713Z,100935.44
2022-12-27T21:36:21.460Z,100928.56
2022-12-27T21:38:49.629Z,100935.94
2022-12-27T21:41:19.313Z,100936.72
2022-12-27T21:43:49.830Z,100929.84
2022-12-27T21:46:20.968Z,100933.69
2022-12-27T21:48:49.975Z,100931.91
2022-12-27T21:51:19.813Z,100935.97
2022-12-27T21:53:48.030Z,100917.22
2022-12-27T21:56:17.031Z,100926.38
2022-12-27T21:58:45.774Z,100922.69
2022-12-27T22:01:16.910Z,100916.88
2022-12-27T22:03:46.489Z,100914.22
2022-12-27T22:06:16.826Z,100913.97
2022-12-27T22:08:45.720Z,100904.38
2022-12-27T22:11:14.222Z,100898.53
2022-12-27T22:13:42.381Z,100889.94
2022-12-27T22:16:15.666Z,100891.59
2022-12-27T22:18:44.882Z,100893.34
2022-12-27T22:21:15.269Z,100896.66
2022-12-27T22:23:44.735Z,100896.00
2022-12-27T22:26:14.216Z,100896.00
2022-12-27T22:28:42.508Z,100899.53
2022-12-27T22:31:11.982Z,100889.16
2022-12-27T22:33:41.195Z,100884.50
2022-12-27T22:36:11.727Z,100887.16
2022-12-27T22:38:40.627Z,100880.31
2022-12-27T22:41:12.247Z,100876.03
2022-12-27T22:43:40.952Z,100874.13
2022-12-27T22:46:10.734Z,100871.22
2022-12-27T22:48:38.780Z,100879.19
2022-12-27T22:51:14.037Z,100876.53
2022-12-27T22:53:42.180Z,100869.94
2022-12-27T22:56:14.090Z,100875.13
2022-12-27T22:58:41.687Z,100880.06
2022-12-27T23:01:12.630Z,100865.41
2022-12-27T23:03:40.367Z,100878.28
2022-12-27T23:06:11.128Z,100875.00
2022-12-27T23:08:38.879Z,100879.19
2022-12-27T23:11:08.848Z,100866.88
2022-12-27T23:13:36.484Z,100866.66
2022-12-27T23:16:05.422Z,100862.59
2022-12-27T23:18:33.608Z,100856.53
2022-12-27T23:21:20.295Z,100853.22
2022-12-27T23:23:50.244Z,100856.28
2022-12-27T23:26:20.131Z,100853.75
2022-12-27T23:28:48.936Z,100839.06
2022-12-27T23:31:17.282Z,100848.41
2022-12-27T23:33:44.869Z,100844.13
2022-12-27T23:36:14.091Z,100840.59
2022-12-27T23:38:41.753Z,100840.59
2022-12-27T23:41:15.396Z,100828.56
2022-12-27T23:43:52.664Z,100826.44
2022-12-27T23:46:24.886Z,100824.94
2022-12-27T23:48:53.240Z,100823.91
2022-12-27T23:51:22.251Z,100815.78
2022-12-27T23:53:50.475Z,100816.78
2022-12-27T23:56:22.291Z,100819.69
2022-12-27T23:58:51.634Z,100815.75
